sensor_id;sensor_type;location;lat;lon;timestamp;temperature;humidity
2100;DHT22;1055;48.854;9.302;2023-04-01T00:01:19;8.80;99.90
2100;DHT22;1055;48.854;9.302;2023-04-01T00:03:45;8.80;99.90
2100;DHT22;1055;48.854;9.302;2023-04-01T00:06:16;8.80;99.90
2100;DHT22;1055;48.854;9.302;2023-04-01T00:08:42;8.80;99.90
2100;DHT22;1055;48.854;9.302;2023-04-01T00:11:07;8.70;99.90
2100;DHT22;1055;48.854;9.302;2023-04-01T00:13:33;8.70;99.90
2100;DHT22;1055;48.854;9.302;2023-04-01T00:15:59;8.70;99.90
2100;DHT22;1055;48.854;9.302;2023-04-01T00:18:25;8.80;99.90
2100;DHT22;1055;48.854;9.302;2023-04-01T00:20:51;8.70;99.90
2100;DHT22;1055;48.854;9.302;2023-04-01T00:23:18;8.80;99.90
2100;DHT22;1055;48.854;9.302;2023-04-01T00:25:44;8.70;99.90
2100;DHT22;1055;48.854;9.302;2023-04-01T00:28:11;8.70;99.90
2100;DHT22;1055;48.854;9.302;2023-04-01T00:30:37;8.80;99.90
2100;DHT22;1055;48.854;9.302;2023-04-01T00:33:03;8.80;99.90
2100;DHT22;1055;48.854;9.302;2023-04-01T00:35:29;8.80;99.90
2100;DHT22;1055;48.854;9.302;2023-04-01T00:37:55;8.70;99.90
2100;DHT22;1055;48.854;9.302;2023-04-01T00:40:33;8.80;99.90
2100;DHT22;1055;48.854;9.302;2023-04-01T00:42:59;8.80;99.90
2100;DHT22;1055;48.854;9.302;2023-04-01T00:45:39;8.70;99.90
2100;DHT22;1055;48.854;9.302;2023-04-01T00:48:10;8.80;99.90
2100;DHT22;1055;48.854;9.302;2023-04-01T00:50:37;8.80;99.90
2100;DHT22;1055;48.854;9.302;2023-04-01T00:53:05;8.80;99.90
2100;DHT22;1055;48.854;9.302;2023-04-01T00:55:35;8.80;99.90
2100;DHT22;1055;48.854;9.302;2023-04-01T00:58:04;8.80;99.90
2100;DHT22;1055;48.854;9.302;2023-04-01T01:00:30;8.80;99.90
2100;DHT22;1055;48.854;9.302;2023-04-01T01:02:57;8.80;99.90
2100;DHT22;1055;48.854;9.302;2023-04-01T01:05:52;8.80;99.90
2100;DHT22;1055;48.854;9.302;2023-04-01T01:09:12;8.80;99.90
2100;DHT22;1055;48.854;9.302;2023-04-01T01:11:50;8.80;99.90
2100;DHT22;1055;48.854;9.302;2023-04-01T01:14:31;8.90;99.90
2100;DHT22;1055;48.854;9.302;2023-04-01T01:17:12;9.00;99.90
2100;DHT22;1055;48.854;9.302;2023-04-01T01:34:03;8.90;99.90
2100;DHT22;1055;48.854;9.302;2023-04-01T01:36:33;8.80;99.90
2100;DHT22;1055;48.854;9.302;2023-04-01T01:39:07;8.80;99.90
2100;DHT22;1055;48.854;9.302;2023-04-01T01:41:35;8.80;99.90
2100;DHT22;1055;48.854;9.302;2023-04-01T01:44:04;8.90;99.90
2100;DHT22;1055;48.854;9.302;2023-04-01T01:46:31;8.90;99.90
2100;DHT22;1055;48.854;9.302;2023-04-01T01:48:58;8.90;99.90
2100;DHT22;1055;48.854;9.302;2023-04-01T01:51:27;8.90;99.90
2100;DHT22;1055;48.854;9.302;2023-04-01T01:53:53;8.90;99.90
2100;DHT22;1055;48.854;9.302;2023-04-01T01:56:22;8.80;99.90
2100;DHT22;1055;48.854;9.302;2023-04-01T01:58:51;8.80;99.90
2100;DHT22;1055;48.854;9.302;2023-04-01T02:01:22;8.70;99.90
2100;DHT22;1055;48.854;9.302;2023-04-01T02:03:50;8.80;99.90
2100;DHT22;1055;48.854;9.302;2023-04-01T02:06:20;8.70;99.90
2100;DHT22;1055;48.854;9.302;2023-04-01T02:08:55;8.60;99.90
2100;DHT22;1055;48.854;9.302;2023-04-01T02:11:27;8.70;99.90
2100;DHT22;1055;48.854;9.302;2023-04-01T02:13:58;8.60;99.90
2100;DHT22;1055;48.854;9.302;2023-04-01T02:16:36;8.60;99.90
2100;DHT22;1055;48.854;9.302;2023-04-01T02:19:05;8.60;99.90
2100;DHT22;1055;48.854;9.302;2023-04-01T02:21:33;8.60;99.90
2100;DHT22;1055;48.854;9.302;2023-04-01T02:24:02;8.50;99.90
2100;DHT22;1055;48.854;9.302;2023-04-01T02:26:30;8.50;99.90
2100;DHT22;1055;48.854;9.302;2023-04-01T02:28:56;8.50;99.90
2100;DHT22;1055;48.854;9.302;2023-04-01T02:31:23;8.60;99.90
2100;DHT22;1055;48.854;9.302;2023-04-01T02:33:51;8.50;99.90
2100;DHT22;1055;48.854;9.302;2023-04-01T02:36:17;8.50;99.90
2100;DHT22;1055;48.854;9.302;2023-04-01T02:38:44;8.50;99.90
2100;DHT22;1055;48.854;9.302;2023-04-01T02:41:11;8.50;99.90
2100;DHT22;1055;48.854;9.302;2023-04-01T02:43:38;8.50;99.90
2100;DHT22;1055;48.854;9.302;2023-04-01T02:46:03;8.60;99.90
2100;DHT22;1055;48.854;9.302;2023-04-01T02:48:29;8.50;99.90
2100;DHT22;1055;48.854;9.302;2023-04-01T02:50:55;8.60;99.90
2100;DHT22;1055;48.854;9.302;2023-04-01T02:53:21;8.60;99.90
2100;DHT22;1055;48.854;9.302;2023-04-01T02:55:47;8.60;99.90
2100;DHT22;1055;48.854;9.302;2023-04-01T02:58:15;8.50;99.90
2100;DHT22;1055;48.854;9.302;2023-04-01T03:00:41;8.50;99.90
2100;DHT22;1055;48.854;9.302;2023-04-01T03:03:08;8.50;99.90
2100;DHT22;1055;48.854;9.302;2023-04-01T03:05:34;8.50;99.90
2100;DHT22;1055;48.854;9.302;2023-04-01T03:07:59;8.50;99.90
2100;DHT22;1055;48.854;9.302;2023-04-01T03:10:25;8.50;99.90
2100;DHT22;1055;48.854;9.302;2023-04-01T03:12:51;8.50;99.90
2100;DHT22;1055;48.854;9.302;2023-04-01T03:15:16;8.50;99.90
2100;DHT22;1055;48.854;9.302;2023-04-01T03:17:43;8.40;99.90
2100;DHT22;1055;48.854;9.302;2023-04-01T03:20:09;8.50;99.90
2100;DHT22;1055;48.854;9.302;2023-04-01T03:22:36;8.40;99.90
2100;DHT22;1055;48.854;9.302;2023-04-01T03:25:03;8.40;99.90
2100;DHT22;1055;48.854;9.302;2023-04-01T03:27:29;8.30;99.90
2100;DHT22;1055;48.854;9.302;2023-04-01T03:29:54;8.40;99.90
2100;DHT22;1055;48.854;9.302;2023-04-01T03:32:20;8.30;99.90
2100;DHT22;1055;48.854;9.302;2023-04-01T03:34:46;8.30;99.90
2100;DHT22;1055;48.854;9.302;2023-04-01T03:37:11;8.30;99.90
2100;DHT22;1055;48.854;9.302;2023-04-01T03:39:37;8.30;99.90
2100;DHT22;1055;48.854;9.302;2023-04-01T03:42:03;8.30;99.90
2100;DHT22;1055;48.854;9.302;2023-04-01T03:44:32;8.20;99.90
2100;DHT22;1055;48.854;9.302;2023-04-01T03:46:58;8.20;99.90
2100;DHT22;1055;48.854;9.302;2023-04-01T03:49:24;8.20;99.90
2100;DHT22;1055;48.854;9.302;2023-04-01T03:51:49;8.20;99.90
2100;DHT22;1055;48.854;9.302;2023-04-01T03:54:15;8.20;99.90
2100;DHT22;1055;48.854;9.302;2023-04-01T03:56:42;8.20;99.90
2100;DHT22;1055;48.854;9.302;2023-04-01T03:59:08;8.20;99.90
2100;DHT22;1055;48.854;9.302;2023-04-01T04:01:34;8.20;99.90
2100;DHT22;1055;48.854;9.302;2023-04-01T04:03:59;8.20;99.90
2100;DHT22;1055;48.854;9.302;2023-04-01T04:06:26;8.20;99.90
2100;DHT22;1055;48.854;9.302;2023-04-01T04:08:51;8.20;99.90
2100;DHT22;1055;48.854;9.302;2023-04-01T04:11:18;8.10;99.90
2100;DHT22;1055;48.854;9.302;2023-04-01T04:13:44;8.10;99.90
2100;DHT22;1055;48.854;9.302;2023-04-01T04:16:10;8.10;99.90
2100;DHT22;1055;48.854;9.302;2023-04-01T04:18:36;8.20;99.90
2100;DHT22;1055;48.854;9.302;2023-04-01T04:21:03;8.10;99.90
2100;DHT22;1055;48.854;9.302;2023-04-01T04:23:28;8.20;99.90
2100;DHT22;1055;48.854;9.302;2023-04-01T04:26:00;8.20;99.90
2100;DHT22;1055;48.854;9.302;2023-04-01T04:28:27;8.20;99.90
2100;DHT22;1055;48.854;9.302;2023-04-01T04:30:54;8.20;99.90
2100;DHT22;1055;48.854;9.302;2023-04-01T04:33:21;8.20;99.90
2100;DHT22;1055;48.854;9.302;2023-04-01T04:35:47;8.30;99.90
2100;DHT22;1055;48.854;9.302;2023-04-01T04:38:13;8.30;99.90
2100;DHT22;1055;48.854;9.302;2023-04-01T04:40:40;8.20;99.90
2100;DHT22;1055;48.854;9.302;2023-04-01T04:43:06;8.20;99.90
2100;DHT22;1055;48.854;9.302;2023-04-01T04:45:32;8.10;99.90
2100;DHT22;1055;48.854;9.302;2023-04-01T04:47:58;8.20;99.90
2100;DHT22;1055;48.854;9.302;2023-04-01T04:50:24;8.10;99.90
2100;DHT22;1055;48.854;9.302;2023-04-01T04:52:51;8.00;99.90
2100;DHT22;1055;48.854;9.302;2023-04-01T04:55:17;8.10;99.90
2100;DHT22;1055;48.854;9.302;2023-04-01T04:57:42;8.00;99.90
2100;DHT22;1055;48.854;9.302;2023-04-01T05:00:08;7.90;99.90
2100;DHT22;1055;48.854;9.302;2023-04-01T05:02:35;7.80;99.90
2100;DHT22;1055;48.854;9.302;2023-04-01T05:05:01;7.90;99.90
2100;DHT22;1055;48.854;9.302;2023-04-01T05:07:26;7.90;99.90
2100;DHT22;1055;48.854;9.302;2023-04-01T05:09:52;7.80;99.90
2100;DHT22;1055;48.854;9.302;2023-04-01T05:12:18;7.80;99.90
2100;DHT22;1055;48.854;9.302;2023-04-01T05:14:44;7.90;99.90
2100;DHT22;1055;48.854;9.302;2023-04-01T05:17:10;7.90;99.90
2100;DHT22;1055;48.854;9.302;2023-04-01T05:19:37;7.90;99.90
2100;DHT22;1055;48.854;9.302;2023-04-01T05:22:02;7.90;99.90
2100;DHT22;1055;48.854;9.302;2023-04-01T05:24:28;7.80;99.90
2100;DHT22;1055;48.854;9.302;2023-04-01T05:26:54;7.90;99.90
2100;DHT22;1055;48.854;9.302;2023-04-01T05:29:19;7.90;99.90
2100;DHT22;1055;48.854;9.302;2023-04-01T05:31:45;7.80;99.90
2100;DHT22;1055;48.854;9.302;2023-04-01T05:34:10;8.00;99.90
2100;DHT22;1055;48.854;9.302;2023-04-01T05:36:36;7.90;99.90
2100;DHT22;1055;48.854;9.302;2023-04-01T05:39:02;7.90;99.90
2100;DHT22;1055;48.854;9.302;2023-04-01T05:41:28;7.90;99.90
2100;DHT22;1055;48.854;9.302;2023-04-01T05:43:54;8.10;99.90
2100;DHT22;1055;48.854;9.302;2023-04-01T05:46:20;8.10;99.90
2100;DHT22;1055;48.854;9.302;2023-04-01T05:48:46;8.20;99.90
2100;DHT22;1055;48.854;9.302;2023-04-01T05:51:13;8.20;99.90
2100;DHT22;1055;48.854;9.302;2023-04-01T05:53:39;8.20;99.90
2100;DHT22;1055;48.854;9.302;2023-04-01T05:56:05;8.10;99.90
2100;DHT22;1055;48.854;9.302;2023-04-01T05:58:32;8.10;99.90
2100;DHT22;1055;48.854;9.302;2023-04-01T06:01:06;8.20;99.90
2100;DHT22;1055;48.854;9.302;2023-04-01T06:03:32;8.30;99.90
2100;DHT22;1055;48.854;9.302;2023-04-01T06:05:58;8.40;99.90
2100;DHT22;1055;48.854;9.302;2023-04-01T06:08:24;8.40;99.90
2100;DHT22;1055;48.854;9.302;2023-04-01T06:11:44;8.50;99.90
2100;DHT22;1055;48.854;9.302;2023-04-01T06:14:40;8.60;99.90
2100;DHT22;1055;48.854;9.302;2023-04-01T06:27:57;8.90;99.90
2100;DHT22;1055;48.854;9.302;2023-04-01T06:30:49;9.00;99.90
2100;DHT22;1055;48.854;9.302;2023-04-01T06:44:39;9.20;99.90
2100;DHT22;1055;48.854;9.302;2023-04-01T06:47:21;9.30;99.90
2100;DHT22;1055;48.854;9.302;2023-04-01T06:50:02;9.20;99.90
2100;DHT22;1055;48.854;9.302;2023-04-01T06:58:31;9.20;99.90
2100;DHT22;1055;48.854;9.302;2023-04-01T07:01:07;9.20;99.90
2100;DHT22;1055;48.854;9.302;2023-04-01T07:03:40;9.30;99.90
2100;DHT22;1055;48.854;9.302;2023-04-01T07:09:00;9.30;99.90
2100;DHT22;1055;48.854;9.302;2023-04-01T07:11:31;9.40;99.90
2100;DHT22;1055;48.854;9.302;2023-04-01T07:14:10;9.40;99.90
2100;DHT22;1055;48.854;9.302;2023-04-01T07:16:51;9.40;99.90
2100;DHT22;1055;48.854;9.302;2023-04-01T07:19:47;9.50;99.90
2100;DHT22;1055;48.854;9.302;2023-04-01T07:22:20;9.40;99.90
2100;DHT22;1055;48.854;9.302;2023-04-01T07:24:47;9.50;99.90
2100;DHT22;1055;48.854;9.302;2023-04-01T07:27:14;9.50;99.90
2100;DHT22;1055;48.854;9.302;2023-04-01T07:29:40;9.60;99.90
2100;DHT22;1055;48.854;9.302;2023-04-01T07:32:47;9.60;99.90
2100;DHT22;1055;48.854;9.302;2023-04-01T07:38:34;9.60;99.90
2100;DHT22;1055;48.854;9.302;2023-04-01T07:41:30;9.60;99.90
2100;DHT22;1055;48.854;9.302;2023-04-01T07:44:20;9.50;99.90
2100;DHT22;1055;48.854;9.302;2023-04-01T07:49:59;9.50;99.90
2100;DHT22;1055;48.854;9.302;2023-04-01T07:55:45;9.50;99.90
2100;DHT22;1055;48.854;9.302;2023-04-01T08:04:35;9.60;99.90
2100;DHT22;1055;48.854;9.302;2023-04-01T08:07:26;9.70;99.90
2100;DHT22;1055;48.854;9.302;2023-04-01T08:18:04;9.80;99.90
2100;DHT22;1055;48.854;9.302;2023-04-01T08:20:45;9.80;99.90
2100;DHT22;1055;48.854;9.302;2023-04-01T08:23:19;9.80;99.90
2100;DHT22;1055;48.854;9.302;2023-04-01T08:28:59;9.90;99.90
2100;DHT22;1055;48.854;9.302;2023-04-01T08:34:15;9.90;99.90
2100;DHT22;1055;48.854;9.302;2023-04-01T08:36:47;10.00;99.90
2100;DHT22;1055;48.854;9.302;2023-04-01T08:39:42;9.90;99.90
2100;DHT22;1055;48.854;9.302;2023-04-01T08:42:31;9.80;99.90
2100;DHT22;1055;48.854;9.302;2023-04-01T08:47:54;9.80;99.90
2100;DHT22;1055;48.854;9.302;2023-04-01T08:50:46;9.80;99.90
2100;DHT22;1055;48.854;9.302;2023-04-01T09:05:03;9.30;99.90
2100;DHT22;1055;48.854;9.302;2023-04-01T09:07:40;9.30;99.90
2100;DHT22;1055;48.854;9.302;2023-04-01T09:13:28;9.30;99.90
2100;DHT22;1055;48.854;9.302;2023-04-01T09:38:23;9.50;99.90
2100;DHT22;1055;48.854;9.302;2023-04-01T09:52:40;9.80;99.90
2100;DHT22;1055;48.854;9.302;2023-04-01T10:20:28;9.90;99.90
2100;DHT22;1055;48.854;9.302;2023-04-01T10:23:08;10.00;99.90
2100;DHT22;1055;48.854;9.302;2023-04-01T10:25:59;10.00;99.90
2100;DHT22;1055;48.854;9.302;2023-04-01T10:48:13;10.10;99.90
2100;DHT22;1055;48.854;9.302;2023-04-01T10:59:51;10.00;99.90
2100;DHT22;1055;48.854;9.302;2023-04-01T11:10:51;10.20;99.90
2100;DHT22;1055;48.854;9.302;2023-04-01T11:24:44;10.40;99.90
2100;DHT22;1055;48.854;9.302;2023-04-01T11:30:10;10.40;99.90
2100;DHT22;1055;48.854;9.302;2023-04-01T11:32:53;10.50;99.90
2100;DHT22;1055;48.854;9.302;2023-04-01T11:38:42;10.70;99.90
2100;DHT22;1055;48.854;9.302;2023-04-01T11:52:03;10.70;99.90
2100;DHT22;1055;48.854;9.302;2023-04-01T11:58:28;10.80;99.90
2100;DHT22;1055;48.854;9.302;2023-04-01T12:01:13;10.70;99.90
2100;DHT22;1055;48.854;9.302;2023-04-01T12:04:00;10.70;99.90
2100;DHT22;1055;48.854;9.302;2023-04-01T12:06:54;10.70;99.90
2100;DHT22;1055;48.854;9.302;2023-04-01T12:15:12;10.60;99.90
2100;DHT22;1055;48.854;9.302;2023-04-01T12:20:36;10.60;99.90
2100;DHT22;1055;48.854;9.302;2023-04-01T12:32:15;10.70;99.90
2100;DHT22;1055;48.854;9.302;2023-04-01T12:35:01;10.80;99.90
2100;DHT22;1055;48.854;9.302;2023-04-01T12:40:17;10.60;99.90
2100;DHT22;1055;48.854;9.302;2023-04-01T12:45:34;10.60;99.90
